Etusivu
METAR-TAF:

METAR-TAF

Lentoasemat :

Jällivaaran lentoasema

Jällivaara, Ruotsi

Leveyspiiri: 67-09N, Pituuspiiri: 020-39E, korkeus merenpinnasta: 359 m

Tämänhetkinen sää

Tämä raportti tehtiin 28 minuuttia sitten, kello 12.20 UTC
Tuuli 8 kn etelästä/lounaasta, vaihdellen etelän ja lännen/lounaan välillä
Lämpötila 6°C
Kosteus 65%
Ilmanpaine 1002 hPa
Näkyvyys 10 km tai enemmän

METAR: ESNG 251220Z AUTO 21008KT 180V250 9999 FEW026/// BKN086/// BKN120/// 06/00 Q1002

Aika: 14:48 (12:48 UTC)

Sääennuste

Tämä raportti tehtiin 4 tuntia ja 18 minuuttia sitten, kello 08.30 UTC
Ennuste voimassa 25. päivästä klo 09 UTC - 25. päivään klo 11 UTC
Tuuli 9 kn etelästä/lounaasta
Näkyvyys 10 km tai enemmän
ei pilviä alle 1500 m:ssä eikä cumulonimbus-pilviä
Todennäköisyys 40%
25. päivästä klo 10 UTC - 25. päivään klo 11 UTC
sadetta

TAF: ESNG 250830Z 2509/2511 20009KT CAVOK PROB40 2510/2511 RA

Säähavainnot ja -ennusteet yli 4000 lentoasemalta (METAR- ja TAF-raportit).

Käytössä olevat sääasemat on merkitty karttaan keltaisilla ja punaisilla pisteillä.

Aseta hiiri pisteen päälle nähdäksesi sääaseman nimen.

Klikkaa sitten nähdäksesi säähavainnot ja -ennusteet.

Kartan vaihtaminen: klikkaa mustalla rastilla varustettuja vihreitä pisteitä, niin voit zoomata sisään; viivalla varustettua vihreää pistettä, niin voit zoomata ulos tai vihreitä nuolia, niin pääset viereisille kartoille.


METAR-TAF: